Last 7 Days

Suisun Valley

Hourly Data | America/Los_Angeles
as of 3/7/21 12:31 PM PST
Date & Time Temp (°F) RH (%) Dew Pt (°F) Wind Spd (mph) Wind Dir (°) Wind Gust (mph) Latest Rain (In) Daily Rain (In) Daily Min Temp (°F) Daily Max Temp (°F)
3/7/21 - 1200 60.9 45 39.6 3.7 SSE | 158 9.8 0.00 0.00 35.7 62.0
3/7/21 - 1100 58.3 41 34.7 1.2 SW | 215 4.8 0.00 0.00 35.7 59.4
3/7/21 - 1000 55.9 42 33.2 1.5 W | 271 7.8 0.00 0.00 35.7 57.2
3/7/21 - 0900 51.3 57 36.3 0.4 SW | 218 3.4 0.00 0.00 35.7 54.9
3/7/21 - 0800 45.8 65 34.6 4.0 NNE | 16 11.8 0.00 0.00 35.7 48.4
3/7/21 - 0700 40.7 76 33.8 4.1 NNW | 336 12.5 0.00 0.00 35.7 45.2
3/7/21 - 0600 39.8 83 35.1 1.6 WNW | 302 6.4 0.00 0.00 35.7 45.2
3/7/21 - 0500 37.5 93 35.7 3.5 NW | 305 5.8 0.00 0.00 35.7 45.2
3/7/21 - 0400 36.9 93 35.2 0.9 NW | 304 4.1 0.00 0.00 35.7 45.2
3/7/21 - 0300 37.9 92 35.9 0.8 SSW | 206 3.8 0.00 0.00 36.7 45.2
3/7/21 - 0200 40.8 86 37.0 0.8 W | 274 4.8 0.00 0.00 38.5 45.2
3/7/21 - 0100 43.0 84 38.4 0.6 WSW | 241 5.1 0.00 0.00 41.7 45.2
3/7/21 - 0000 44.1 86 40.1 0.9 WNW | 284 4.4 0.00 0.05 40.2 62.8
3/6/21 - 2300 41.9 96 40.8 0.6 WSW | 253 5.1 0.00 0.05 40.2 62.8
3/6/21 - 2200 42.5 95 41.1 0.4 NNW | 343 5.1 0.00 0.05 40.2 62.8
3/6/21 - 2100 45.5 88 42.1 0.5 NW | 308 4.1 0.00 0.05 40.2 62.8
3/6/21 - 2000 49.2 78 42.6 3.8 SSW | 196 8.1 0.00 0.05 40.2 62.8
3/6/21 - 1900 52.5 70 43.2 6.0 SSW | 210 18.2 0.00 0.05 40.2 62.8
3/6/21 - 1800 56.4 65 45.0 8.2 SW | 232 17.2 0.00 0.05 40.2 62.8
3/6/21 - 1700 60.4 61 47.0 5.9 SSW | 213 11.1 0.00 0.05 40.2 62.8
3/6/21 - 1600 59.7 59 45.5 2.3 SSW | 204 8.4 0.00 0.05 40.2 62.8
3/6/21 - 1500 61.3 53 44.0 3.0 W | 261 9.5 0.00 0.05 40.2 62.8
3/6/21 - 1400 61.4 57 46.0 3.5 SW | 227 10.8 0.00 0.05 40.2 62.4
3/6/21 - 1300 60.0 61 46.4 4.8 SW | 236 10.5 0.00 0.05 40.2 61.2
3/6/21 - 1200 57.7 66 46.4 4.8 WSW | 245 12.1 0.00 0.05 40.2 59.0
3/6/21 - 1100 55.0 68 44.6 3.5 NNW | 337 9.5 0.00 0.05 40.2 56.7
3/6/21 - 1000 51.4 77 44.4 2.4 E | 96 7.8 0.00 0.05 40.2 53.4
3/6/21 - 0900 48.3 85 44.1 3.4 WSW | 253 8.4 0.00 0.05 40.2 49.8
3/6/21 - 0800 43.0 96 41.9 1.3 SSW | 196 4.8 0.00 0.05 40.2 47.8
3/6/21 - 0700 41.4 94 39.8 1.8 W | 272 8.4 0.00 0.05 40.2 47.8
3/6/21 - 0600 44.1 90 41.4 6.8 SSW | 210 13.8 0.00 0.05 42.6 47.8
3/6/21 - 0500 43.4 93 41.5 2.2 SW | 222 8.4 0.00 0.05 42.6 47.8
3/6/21 - 0400 45.1 93 43.1 4.6 W | 261 14.8 0.00 0.05 44.1 47.8
3/6/21 - 0300 45.9 94 44.2 5.0 SW | 215 13.2 0.00 0.05 45.0 47.8
3/6/21 - 0200 46.6 94 45.0 4.9 SSW | 193 15.5 0.00 0.05 46.1 47.8
3/6/21 - 0100 47.5 89 44.3 3.7 WSW | 238 14.8 0.05 0.05 46.7 47.8
3/6/21 - 0000 48.8 90 45.9 10.5 W | 268 23.9 0.09 0.13 39.8 64.5
3/5/21 - 2300 54.9 84 50.2 7.6 S | 177 24.6 0.04 0.04 39.8 64.5
3/5/21 - 2200 53.9 90 51.2 4.2 S | 184 9.5 0.00 0.00 39.8 64.5
3/5/21 - 2100 55.0 88 51.6 6.7 SSW | 209 17.5 0.00 0.00 39.8 64.5
3/5/21 - 2000 55.0 88 51.4 8.5 SW | 221 19.2 0.00 0.00 39.8 64.5
3/5/21 - 1900 55.4 83 50.4 8.8 SW | 222 17.2 0.00 0.00 39.8 64.5
3/5/21 - 1800 57.8 74 49.6 6.4 SW | 218 15.2 0.00 0.00 39.8 64.5
3/5/21 - 1700 61.5 64 49.0 8.4 SW | 218 16.5 0.00 0.00 39.8 64.5
3/5/21 - 1600 63.6 59 49.1 8.2 SW | 222 16.2 0.00 0.00 39.8 64.5
3/5/21 - 1500 64.0 59 49.3 7.3 SSW | 209 13.2 0.00 0.00 39.8 64.5
3/5/21 - 1400 63.8 60 49.8 7.5 SW | 218 15.2 0.00 0.00 39.8 64.5
3/5/21 - 1300 62.6 61 49.0 8.4 SSW | 202 14.2 0.00 0.00 39.8 63.2
3/5/21 - 1200 61.1 63 48.4 7.6 SSW | 209 13.8 0.00 0.00 39.8 62.4
3/5/21 - 1100 60.6 60 46.7 6.1 WSW | 247 11.8 0.00 0.00 39.8 61.3
3/5/21 - 1000 58.6 62 45.6 5.9 WSW | 242 12.1 0.00 0.00 39.8 59.7
3/5/21 - 0900 53.5 74 45.4 3.6 W | 276 9.1 0.00 0.00 39.8 57.4
3/5/21 - 0800 43.5 91 41.1 2.7 NW | 310 6.4 0.00 0.00 39.8 47.5
3/5/21 - 0700 40.9 93 39.1 3.1 NW | 318 7.1 0.00 0.00 39.8 43.5
3/5/21 - 0600 40.6 96 39.4 2.7 NW | 310 6.1 0.00 0.00 39.8 43.5
3/5/21 - 0500 40.4 95 39.2 3.1 NW | 312 6.1 0.00 0.00 39.8 43.5
3/5/21 - 0400 42.0 92 39.8 3.3 NW | 310 5.8 0.00 0.00 40.6 43.5
3/5/21 - 0300 42.6 90 40.0 2.5 NW | 308 4.8 0.00 0.00 40.8 43.5
3/5/21 - 0200 41.6 89 38.7 3.2 NW | 305 5.4 0.00 0.00 40.8 43.2
3/5/21 - 0100 42.6 86 38.7 2.5 NW | 304 4.8 0.00 0.00 42.0 43.2
3/5/21 - 0000 42.6 84 38.0 2.4 NW | 305 6.8 0.00 0.00 36.5 65.0
3/4/21 - 2300 43.6 78 37.3 3.7 NW | 313 7.4 0.00 0.00 36.5 65.0
3/4/21 - 2200 45.6 73 37.4 3.5 NNW | 334 7.8 0.00 0.00 36.5 65.0
3/4/21 - 2100 49.9 63 37.7 1.8 NNW | 340 6.4 0.00 0.00 36.5 65.0
3/4/21 - 2000 54.3 52 37.3 4.7 WSW | 240 12.1 0.00 0.00 36.5 65.0
3/4/21 - 1900 54.6 64 42.7 5.6 WSW | 247 10.8 0.00 0.00 36.5 65.0
3/4/21 - 1800 57.8 63 45.2 4.3 SW | 222 11.8 0.00 0.00 36.5 65.0
3/4/21 - 1700 63.0 44 40.4 5.4 SW | 236 11.5 0.00 0.00 36.5 65.0
3/4/21 - 1600 64.2 41 39.9 5.5 SW | 228 12.1 0.00 0.00 36.5 65.0
3/4/21 - 1500 63.7 46 42.7 5.4 SW | 227 10.8 0.00 0.00 36.5 64.7
3/4/21 - 1400 62.1 51 43.7 5.8 SSW | 202 11.5 0.00 0.00 36.5 62.9
3/4/21 - 1300 60.6 56 44.6 6.9 SSW | 203 13.2 0.00 0.00 36.5 61.4
3/4/21 - 1200 59.1 57 43.9 7.6 S | 191 13.8 0.00 0.00 36.5 60.2
3/4/21 - 1100 57.3 62 44.5 5.3 SSW | 201 11.1 0.00 0.00 36.5 58.3
3/4/21 - 1000 54.5 70 45.0 4.2 W | 265 8.8 0.00 0.00 36.5 56.0
3/4/21 - 0900 50.2 80 44.4 2.1 NNW | 335 6.1 0.00 0.00 36.5 53.2
3/4/21 - 0800 41.5 97 40.6 3.8 NNW | 328 8.4 0.00 0.00 36.5 47.4
3/4/21 - 0700 37.0 97 36.2 3.2 NNW | 341 6.4 0.00 0.00 36.5 47.4
3/4/21 - 0600 40.2 90 37.6 1.8 W | 281 5.8 0.00 0.00 36.7 47.4
3/4/21 - 0500 44.0 88 40.6 3.6 WSW | 244 8.8 0.00 0.00 42.6 47.4
3/4/21 - 0400 44.9 87 41.2 3.5 W | 266 8.4 0.00 0.00 43.9 47.4
3/4/21 - 0300 46.3 84 41.9 5.1 WSW | 252 15.8 0.00 0.00 45.6 47.4
3/4/21 - 0200 46.9 84 42.2 5.1 W | 271 12.8 0.00 0.00 46.2 47.4
3/4/21 - 0100 47.0 84 42.6 4.0 WSW | 247 11.1 0.00 0.00 46.6 47.4
3/4/21 - 0000 47.3 84 42.7 4.4 WSW | 257 14.2 0.00 0.00 35.6 66.6
3/3/21 - 2300 47.5 85 43.3 6.6 W | 260 17.5 0.00 0.00 35.6 66.6
3/3/21 - 2200 47.5 86 43.5 4.7 W | 280 11.1 0.00 0.00 35.6 66.6
3/3/21 - 2100 48.0 84 43.4 3.3 WSW | 242 10.5 0.00 0.00 35.6 66.6
3/3/21 - 2000 49.4 82 44.2 5.5 WSW | 249 15.8 0.00 0.00 35.6 66.6
3/3/21 - 1900 50.9 83 45.8 8.8 SW | 224 19.2 0.00 0.00 35.6 66.6
3/3/21 - 1800 54.6 72 45.9 11.1 SW | 230 20.2 0.00 0.00 35.6 66.6
3/3/21 - 1700 57.1 69 46.9 11.8 SW | 214 21.5 0.00 0.00 35.6 66.6
3/3/21 - 1600 60.5 60 46.6 9.0 SSW | 212 16.5 0.00 0.00 35.6 66.6
3/3/21 - 1500 64.3 45 42.5 9.4 WSW | 240 17.8 0.00 0.00 35.6 66.6
3/3/21 - 1400 65.9 38 39.3 9.8 WSW | 242 19.2 0.00 0.00 35.6 66.6
3/3/21 - 1300 65.9 39 40.1 9.5 WSW | 238 16.8 0.00 0.00 35.6 66.4
3/3/21 - 1200 63.5 52 45.5 5.0 S | 188 12.5 0.00 0.00 35.6 65.0
3/3/21 - 1100 60.1 51 42.0 3.8 S | 170 8.1 0.00 0.00 35.6 62.6
3/3/21 - 1000 56.0 58 41.3 0.7 SSW | 196 3.4 0.00 0.00 35.6 59.2
3/3/21 - 0900 46.0 81 40.4 1.5 NNW | 327 3.8 0.00 0.00 35.6 50.3
3/3/21 - 0800 39.5 89 36.5 2.2 NW | 319 4.8 0.00 0.00 35.6 46.4
3/3/21 - 0700 36.4 91 34.0 2.2 NNW | 334 4.8 0.00 0.00 35.6 46.4
3/3/21 - 0600 37.7 88 34.6 2.1 NW | 304 4.8 0.00 0.00 36.5 46.4
3/3/21 - 0500 39.0 85 34.8 0.8 NNW | 330 4.1 0.00 0.00 36.6 46.4
3/3/21 - 0400 42.4 77 35.6 1.8 SW | 221 4.1 0.00 0.00 41.2 46.4
3/3/21 - 0300 44.8 70 35.7 1.2 WNW | 287 4.1 0.00 0.00 41.8 46.4
3/3/21 - 0200 44.1 71 35.2 2.4 NW | 326 5.1 0.00 0.00 41.8 46.0
3/3/21 - 0100 42.5 77 35.9 3.8 NNW | 330 5.8 0.00 0.00 41.8 43.9
3/3/21 - 0000 42.2 82 37.1 3.9 NW | 312 5.4 0.00 0.00 35.2 70.6
3/2/21 - 2300 43.7 80 38.0 4.2 NW | 313 6.1 0.00 0.00 35.2 70.6
3/2/21 - 2200 45.9 76 38.9 3.9 NW | 313 6.8 0.00 0.00 35.2 70.6
3/2/21 - 2100 47.8 73 39.6 4.0 NW | 317 5.4 0.00 0.00 35.2 70.6
3/2/21 - 2000 51.1 69 41.3 3.8 NW | 316 5.8 0.00 0.00 35.2 70.6
3/2/21 - 1900 54.4 70 44.9 2.1 NW | 324 5.1 0.00 0.00 35.2 70.6
3/2/21 - 1800 60.8 59 46.3 1.6 W | 267 4.8 0.00 0.00 35.2 70.6
3/2/21 - 1700 65.9 43 42.3 3.1 SSW | 207 7.4 0.00 0.00 35.2 70.6
3/2/21 - 1600 68.4 36 40.1 2.5 SSW | 206 6.8 0.00 0.00 35.2 70.6
3/2/21 - 1500 69.8 33 39.0 2.7 SSW | 197 8.1 0.00 0.00 35.2 70.6
3/2/21 - 1400 69.2 35 40.4 3.7 SSW | 206 9.5 0.00 0.00 35.2 70.5
3/2/21 - 1300 67.5 37 40.2 2.9 SW | 216 8.1 0.00 0.00 35.2 68.3
3/2/21 - 1200 64.0 42 40.4 2.2 S | 178 5.8 0.00 0.00 35.2 66.0
3/2/21 - 1100 58.4 50 39.9 3.2 SSE | 165 6.4 0.00 0.00 35.2 60.8
3/2/21 - 1000 53.4 59 39.7 0.8 SSE | 153 4.4 0.00 0.00 35.2 55.7
3/2/21 - 0900 46.3 71 37.4 0.6 NNE | 12 2.7 0.00 0.00 35.2 50.6
3/2/21 - 0800 38.3 86 34.3 0.9 NW | 316 4.8 0.00 0.00 35.2 49.1
3/2/21 - 0700 36.4 84 32.0 2.2 NW | 320 4.4 0.00 0.00 35.2 49.1
3/2/21 - 0600 36.0 86 32.3 3.5 NNW | 328 5.4 0.00 0.00 35.6 49.1
3/2/21 - 0500 36.5 85 32.5 2.4 NW | 325 5.4 0.00 0.00 35.7 49.1
3/2/21 - 0400 38.4 79 32.4 1.8 NW | 318 5.1 0.00 0.00 36.5 49.1
3/2/21 - 0300 42.3 68 32.4 0.8 SSW | 201 3.8 0.00 0.00 39.9 49.1
3/2/21 - 0200 46.3 57 31.6 2.3 W | 268 6.4 0.00 0.00 42.5 49.1
3/2/21 - 0100 44.7 62 32.5 2.5 NNW | 333 7.4 0.00 0.00 43.0 47.0
3/2/21 - 0000 42.8 71 33.9 3.1 NW | 323 4.4 0.00 0.00 35.0 67.4
3/1/21 - 2300 43.2 72 34.7 3.9 NW | 324 6.1 0.00 0.00 35.0 67.4
3/1/21 - 2200 43.1 75 35.8 3.8 NW | 321 5.8 0.00 0.00 35.0 67.4
3/1/21 - 2100 45.0 72 36.6 2.7 NW | 314 5.4 0.00 0.00 35.0 67.4
3/1/21 - 2000 48.6 64 37.2 2.1 NW | 312 4.8 0.00 0.00 35.0 67.4
3/1/21 - 1900 51.8 60 38.4 3.1 NW | 315 6.1 0.00 0.00 35.0 67.4
3/1/21 - 1800 60.3 45 38.2 2.6 WNW | 302 6.1 0.00 0.00 35.0 67.4
3/1/21 - 1700 65.8 33 35.8 2.9 WSW | 257 8.4 0.00 0.00 35.0 67.4
3/1/21 - 1600 66.5 34 37.0 4.6 WSW | 247 10.8 0.00 0.00 35.0 67.4
3/1/21 - 1500 66.7 35 37.9 4.6 SW | 218 10.1 0.00 0.00 35.0 67.4
3/1/21 - 1400 66.3 35 38.1 3.6 SSW | 206 9.5 0.00 0.00 35.0 67.3
3/1/21 - 1300 65.2 35 37.2 2.5 SSE | 167 6.8 0.00 0.00 35.0 66.3
3/1/21 - 1200 63.0 35 35.1 5.2 SSW | 205 10.5 0.00 0.00 35.0 64.2
3/1/21 - 1100 60.5 43 37.5 3.9 S | 178 8.8 0.00 0.00 35.0 62.4
3/1/21 - 1000 54.7 61 41.6 1.7 SE | 128 5.8 0.00 0.00 35.0 57.3
3/1/21 - 0900 47.0 77 40.0 1.2 NW | 324 3.4 0.00 0.00 35.0 51.2
3/1/21 - 0800 38.9 91 36.4 2.0 NW | 318 4.4 0.00 0.00 35.0 42.6
3/1/21 - 0700 35.3 93 33.6 3.6 NW | 320 5.8 0.00 0.00 35.0 41.1
3/1/21 - 0600 36.4 90 33.8 2.6 NW | 315 4.8 0.00 0.00 35.1 41.1
3/1/21 - 0500 36.7 90 34.2 3.0 NW | 315 5.4 0.00 0.00 36.3 41.1
3/1/21 - 0400 38.3 86 34.5 3.7 NW | 314 6.4 0.00 0.00 36.8 41.1
3/1/21 - 0300 39.1 84 34.7 3.7 NW | 312 5.8 0.00 0.00 38.7 41.1
3/1/21 - 0200 39.7 83 35.0 4.2 NW | 313 7.1 0.00 0.00 39.5 41.1
3/1/21 - 0100 40.4 81 35.2 4.7 NW | 316 6.8 0.00 0.00 40.0 41.1
3/1/21 - 0000 41.2 80 35.4 5.0 NW | 314 7.4 0.00 0.00 38.4 67.2
2/28/21 - 2300 41.7 79 35.7 4.6 NW | 312 7.4 0.00 0.00 38.4 67.2
2/28/21 - 2200 42.1 79 36.1 4.2 NW | 319 6.4 0.00 0.00 38.4 67.2
2/28/21 - 2100 43.6 77 36.8 4.0 NW | 319 6.8 0.00 0.00 38.4 67.2
2/28/21 - 2000 45.9 72 37.5 3.0 NW | 318 5.1 0.00 0.00 38.4 67.2
2/28/21 - 1900 50.5 62 37.7 2.6 NW | 319 5.1 0.00 0.00 38.4 67.2
2/28/21 - 1800 62.0 32 32.0 3.0 E | 84 10.5 0.00 0.00 38.4 67.2
2/28/21 - 1700 65.1 29 32.1 5.9 ENE | 65 11.5 0.00 0.00 38.4 67.2
2/28/21 - 1600 66.6 26 30.6 6.6 ENE | 70 11.5 0.00 0.00 38.4 67.2
2/28/21 - 1500 66.7 27 31.5 6.7 NE | 56 12.1 0.00 0.00 38.4 67.2
2/28/21 - 1400 65.9 26 30.0 8.7 NE | 56 15.5 0.00 0.00 38.4 66.4
2/28/21 - 1300 65.6 26 30.1 9.1 NE | 50 17.8 0.00 0.00 38.4 66.2
Max 69.8 97 51.6 11.8 - 24.6 0.09 0.13 46.7 70.6
Avg 50.8 70 40.0 4.0 - 9.2 0.00 - - -
Min 35.3 26 30.0 0.4 - 2.7 0.00 0.00 35.0 41.1
Total - - - - - - 0.18 - - -
Tip: Bookmark this page for easy future reference